Time;durP1;ratioP1;P1;durP2;ratioP2;P2;SDS_P1;SDS_P2;PMS_P1;PMS_P2;Temp;Humidity;BMP_temperature;BMP_pressure;BME280_temperature;BME280_humidity;BME280_pressure;Samples;Min_cycle;Max_cycle;Signal;HPM_P1;HPM_P2
2021/03/26 00:02:25;;;;;;;;;;;4.80;98.60;;;;;;5029057;28;19931;-61
2021/03/26 00:04:50;;;;;;;;;;;4.70;99.10;;;;;;5028854;28;20231;-61
2021/03/26 00:07:16;;;;;;;;;;;4.70;99.00;;;;;;5029024;28;20326;-63
2021/03/26 00:09:42;;;;;;;;;;;4.70;99.00;;;;;;5028886;28;19964;-61
2021/03/26 00:12:12;;;;;;;;;;;4.60;99.10;;;;;;5030894;28;19971;-60
2021/03/26 00:14:38;;;;;;;;;;;4.60;99.30;;;;;;5032730;28;19976;-60
2021/03/26 00:17:04;;;;;;;;;;;4.50;99.40;;;;;;5032606;28;20319;-60
2021/03/26 00:19:30;;;;;;;;;;;4.50;99.50;;;;;;5032340;28;19921;-60
2021/03/26 00:21:55;;;;;;;;;;;4.50;99.90;;;;;;5032195;28;20282;-60
2021/03/26 00:24:21;;;;;;;;;;;4.50;99.70;;;;;;5033729;28;19929;-60
2021/03/26 00:26:47;;;;;;;;;;;4.40;99.60;;;;;;5033128;28;20039;-60
2021/03/26 00:29:13;;;;;;;;;;;4.50;99.90;;;;;;5032267;28;19928;-61
2021/03/26 00:31:40;;;;;;;;;;;4.50;99.90;;;;;;5032024;28;19921;-60
2021/03/26 00:36:42;;;;;;;;;;;4.50;99.90;;;;;;4472018;23;19925;31
2021/03/26 00:39:08;;;;;;;;;;;4.40;99.90;;;;;;5016034;28;19921;-61
2021/03/26 00:41:34;;;;;;;;;;;4.50;99.90;;;;;;5017110;28;20381;-61
2021/03/26 00:44:00;;;;;;;;;;;4.40;99.80;;;;;;5011596;28;19932;-61
2021/03/26 00:46:26;;;;;;;;;;;4.40;99.90;;;;;;4994658;28;20340;-61
2021/03/26 00:48:52;;;;;;;;;;;4.40;99.90;;;;;;4994511;28;19943;-60
2021/03/26 00:51:18;;;;;;;;;;;4.40;99.90;;;;;;4994334;28;20317;-60
2021/03/26 00:53:43;;;;;;;;;;;4.30;99.90;;;;;;5005459;28;19967;-61
2021/03/26 00:56:09;;;;;;;;;;;4.30;99.90;;;;;;5013708;28;19921;-62
2021/03/26 00:58:35;;;;;;;;;;;6.40;99.90;;;;;;5013966;28;19921;-61
2021/03/26 01:01:01;;;;;;;;;;;4.30;99.90;;;;;;5013838;28;20009;-61
2021/03/26 01:03:27;;;;;;;;;;;4.30;99.90;;;;;;5013147;28;19925;-61
2021/03/26 01:05:56;;;;;;;;;;;4.40;99.90;;;;;;5013347;28;19983;-61
2021/03/26 01:08:22;;;;;;;;;;;4.30;99.90;;;;;;5013536;28;19971;-61
2021/03/26 01:10:53;;;;;;;;;;;4.30;99.90;;;;;;5002168;28;20376;-61
2021/03/26 01:13:19;;;;;;;;;;;4.30;99.90;;;;;;4993608;28;19933;-61
2021/03/26 01:15:45;;;;;;;;;;;4.20;99.90;;;;;;4994210;28;19921;-61
2021/03/26 01:18:16;;;;;;;;;;;4.30;99.90;;;;;;5008942;28;19961;-61
2021/03/26 01:20:42;;;;;;;;;;;4.30;99.90;;;;;;4993703;28;19929;-61
2021/03/26 01:23:08;;;;;;;;;;;4.30;99.90;;;;;;4993420;28;20315;-61
2021/03/26 01:25:38;;;;;;;;;;;4.30;99.90;;;;;;4993605;28;19922;-62
2021/03/26 01:28:04;;;;;;;;;;;4.30;99.90;;;;;;4993856;28;19922;-62
2021/03/26 01:30:31;;;;;;;;;;;4.30;99.90;;;;;;4993197;28;19921;-61
2021/03/26 01:32:57;;;;;;;;;;;4.30;99.90;;;;;;4993348;28;20016;-61
2021/03/26 01:35:23;;;;;;;;;;;5.20;99.90;;;;;;4993602;28;20427;-61
2021/03/26 01:37:49;;;;;;;;;;;4.30;99.90;;;;;;4993179;28;19944;-62
2021/03/26 01:40:17;;;;;;;;;;;4.40;99.90;;;;;;4993096;28;20325;-61
2021/03/26 01:42:43;;;;;;;;;;;4.40;99.90;;;;;;4993292;28;19921;-61
2021/03/26 01:45:16;;;;;;;;;;;4.40;99.90;;;;;;5006193;28;19921;-61
2021/03/26 01:47:42;;;;;;;;;;;4.50;99.90;;;;;;5012470;28;19968;-62
2021/03/26 01:50:09;;;;;;;;;;;4.50;99.90;;;;;;5012603;28;19921;-62
2021/03/26 01:52:35;;;;;;;;;;;4.50;99.90;;;;;;5012501;28;19940;-61
2021/03/26 01:55:03;;;;;;;;;;;4.50;99.90;;;;;;5012461;28;20364;-61
2021/03/26 01:57:29;;;;;;;;;;;4.50;99.90;;;;;;4994633;28;19929;-61
2021/03/26 01:59:55;;;;;;;;;;;4.50;99.90;;;;;;5012439;28;20253;-61
2021/03/26 02:02:22;;;;;;;;;;;4.50;99.90;;;;;;5012524;28;19921;-61
2021/03/26 02:04:48;;;;;;;;;;;4.50;99.90;;;;;;5012370;28;20305;-61
2021/03/26 02:07:17;;;;;;;;;;;4.60;99.90;;;;;;5012584;28;19921;-62
2021/03/26 02:09:44;;;;;;;;;;;4.70;99.90;;;;;;5012494;28;19921;-61
2021/03/26 02:12:30;;;;;;;;;;;4.70;99.90;;;;;;5011099;28;19921;-62
2021/03/26 02:15:00;;;;;;;;;;;4.80;99.90;;;;;;5011753;28;19967;-62
2021/03/26 02:17:28;;;;;;;;;;;4.80;99.90;;;;;;5011838;28;19967;-62
2021/03/26 02:19:55;;;;;;;;;;;4.80;99.90;;;;;;5010618;28;19976;-62
2021/03/26 02:22:23;;;;;;;;;;;4.80;99.90;;;;;;5012111;28;19921;-61
2021/03/26 02:24:49;;;;;;;;;;;4.90;99.90;;;;;;5011960;28;20276;-61
2021/03/26 02:27:17;;;;;;;;;;;4.90;99.90;;;;;;5012035;28;20072;-63
2021/03/26 02:29:43;;;;;;;;;;;5.00;99.90;;;;;;5011824;28;19952;-62
2021/03/26 02:32:09;;;;;;;;;;;5.00;99.90;;;;;;5012116;28;20342;-61
2021/03/26 02:34:34;;;;;;;;;;;5.10;99.90;;;;;;5011400;28;20441;-61
2021/03/26 02:37:01;;;;;;;;;;;5.10;99.90;;;;;;5011413;28;20394;-62
2021/03/26 02:39:30;;;;;;;;;;;5.20;99.90;;;;;;5011658;28;19932;-62
2021/03/26 02:41:57;;;;;;;;;;;5.20;99.90;;;;;;5011668;28;20355;-61
2021/03/26 02:44:38;;;;;;;;;;;5.30;99.90;;;;;;5011669;28;19992;-62
2021/03/26 02:47:22;;;;;;;;;;;5.40;99.90;;;;;;5011816;28;20331;-61
2021/03/26 02:49:54;;;;;;;;;;;7.80;99.90;;;;;;5011348;28;20028;-60
2021/03/26 02:52:30;;;;;;;;;;;5.40;99.90;;;;;;5011849;28;19921;-60
2021/03/26 02:55:01;;;;;;;;;;;5.50;99.90;;;;;;5011462;28;19931;-60
2021/03/26 02:57:32;;;;;;;;;;;5.50;99.90;;;;;;5011509;28;20012;-60
2021/03/26 03:00:03;;;;;;;;;;;5.50;99.90;;;;;;5011597;28;20012;-60
2021/03/26 03:02:29;;;;;;;;;;;5.60;99.90;;;;;;5011371;28;19921;-60
2021/03/26 03:05:15;;;;;;;;;;;5.60;99.90;;;;;;5011330;28;19921;-61
2021/03/26 03:07:42;;;;;;;;;;;5.60;99.90;;;;;;5011185;28;20391;-60
2021/03/26 03:10:26;;;;;;;;;;;7.30;99.90;;;;;;5011193;28;20028;-60
2021/03/26 03:12:55;;;;;;;;;;;5.60;99.90;;;;;;5011307;28;20071;-60
2021/03/26 03:15:22;;;;;;;;;;;5.60;99.90;;;;;;5011142;28;20435;-60
2021/03/26 03:18:01;;;;;;;;;;;5.60;99.90;;;;;;5010966;28;19922;-59
2021/03/26 03:20:42;;;;;;;;;;;5.70;99.90;;;;;;5011341;28;19929;-60
2021/03/26 03:23:19;;;;;;;;;;;5.70;99.90;;;;;;5011064;28;19921;-61
2021/03/26 03:25:45;;;;;;;;;;;5.70;99.90;;;;;;5011143;28;19921;-60
2021/03/26 03:28:17;;;;;;;;;;;5.70;99.90;;;;;;5010963;28;20283;-60
2021/03/26 03:30:46;;;;;;;;;;;5.70;99.90;;;;;;5026357;28;20352;-61
2021/03/26 03:33:11;;;;;;;;;;;5.70;99.90;;;;;;5026214;28;19964;-61
2021/03/26 03:35:39;;;;;;;;;;;5.70;99.90;;;;;;5011092;28;20002;-61
2021/03/26 03:38:05;;;;;;;;;;;5.70;99.90;;;;;;5010882;28;19927;-61
2021/03/26 03:40:30;;;;;;;;;;;5.70;99.90;;;;;;5010928;28;20023;-61
2021/03/26 03:43:02;;;;;;;;;;;5.70;99.90;;;;;;5010847;28;20383;-62
2021/03/26 03:45:30;;;;;;;;;;;5.80;99.90;;;;;;5010872;28;20359;-60
2021/03/26 03:48:16;;;;;;;;;;;5.80;99.90;;;;;;5014303;28;20011;-61
2021/03/26 03:50:53;;;;;;;;;;;5.80;99.90;;;;;;5014513;28;20009;-60
2021/03/26 03:53:28;;;;;;;;;;;5.80;99.90;;;;;;5014647;28;19929;-61
2021/03/26 03:56:07;;;;;;;;;;;5.80;99.90;;;;;;5014621;28;19922;-61
2021/03/26 03:58:40;;;;;;;;;;;5.80;99.90;;;;;;5014383;28;19921;-60
2021/03/26 04:01:15;;;;;;;;;;;5.80;99.90;;;;;;5014487;28;20012;-61
2021/03/26 04:03:46;;;;;;;;;;;5.90;99.90;;;;;;5014601;28;20012;-61
2021/03/26 04:06:15;;;;;;;;;;;5.90;99.90;;;;;;5014823;28;20067;-61
2021/03/26 04:08:55;;;;;;;;;;;5.90;99.90;;;;;;5014543;28;20383;-60
2021/03/26 04:11:40;;;;;;;;;;;5.90;99.90;;;;;;5014390;28;19929;-61
2021/03/26 04:14:08;;;;;;;;;;;5.90;99.90;;;;;;5014373;28;19921;-60
2021/03/26 04:16:35;;;;;;;;;;;6.00;99.90;;;;;;5014288;28;19921;-60
2021/03/26 04:19:05;;;;;;;;;;;6.00;99.90;;;;;;5014320;28;20383;-61
2021/03/26 04:21:34;;;;;;;;;;;6.00;99.90;;;;;;5014381;28;19933;-61
2021/03/26 04:24:02;;;;;;;;;;;6.30;99.90;;;;;;5014059;28;19921;-61
2021/03/26 04:26:36;;;;;;;;;;;6.00;99.90;;;;;;5014459;28;19963;-61
2021/03/26 04:29:13;;;;;;;;;;;6.10;99.90;;;;;;5014037;28;19922;-61
2021/03/26 04:31:44;;;;;;;;;;;6.10;99.90;;;;;;5013956;28;19925;-61
2021/03/26 04:34:10;;;;;;;;;;;6.10;99.90;;;;;;5013973;28;19934;-61
2021/03/26 04:36:46;;;;;;;;;;;6.10;99.90;;;;;;5014004;28;19921;-62
2021/03/26 04:39:17;;;;;;;;;;;6.20;99.90;;;;;;5013996;28;19941;-61
2021/03/26 04:41:44;;;;;;;;;;;6.10;99.90;;;;;;5013810;28;19935;-61
2021/03/26 04:44:10;;;;;;;;;;;6.20;99.90;;;;;;5013643;28;20091;-62
2021/03/26 04:46:47;;;;;;;;;;;6.20;99.90;;;;;;5013615;28;20443;-62
2021/03/26 04:49:32;;;;;;;;;;;6.20;99.90;;;;;;5013651;28;19921;-61
2021/03/26 04:52:00;;;;;;;;;;;6.20;99.90;;;;;;5013563;28;20269;-61
2021/03/26 04:54:36;;;;;;;;;;;6.20;99.90;;;;;;5013779;28;19925;-61
2021/03/26 04:57:16;;;;;;;;;;;6.20;99.90;;;;;;5012995;28;19928;-61
2021/03/26 04:59:46;;;;;;;;;;;6.20;99.90;;;;;;5013407;28;19922;-61
2021/03/26 05:02:12;;;;;;;;;;;6.20;99.90;;;;;;5013568;28;20330;-61
2021/03/26 05:04:39;;;;;;;;;;;6.20;99.90;;;;;;5013504;28;20272;-61
2021/03/26 05:07:07;;;;;;;;;;;6.30;99.90;;;;;;5013249;28;19921;-61
2021/03/26 05:09:35;;;;;;;;;;;6.30;99.90;;;;;;5013471;28;20336;-61
2021/03/26 05:12:13;;;;;;;;;;;6.30;99.90;;;;;;5018510;28;19972;-61
2021/03/26 05:14:50;;;;;;;;;;;6.30;99.90;;;;;;4995368;28;20399;-61
2021/03/26 05:17:21;;;;;;;;;;;6.30;99.90;;;;;;5013467;28;19964;-61
2021/03/26 05:19:47;;;;;;;;;;;6.30;99.90;;;;;;5022629;28;20386;-61
2021/03/26 05:22:13;;;;;;;;;;;6.40;99.90;;;;;;5020990;28;19921;-61
2021/03/26 05:24:53;;;;;;;;;;;6.40;99.90;;;;;;5022423;28;19959;-60
2021/03/26 05:27:19;;;;;;;;;;;6.40;99.90;;;;;;5008327;28;19922;-60
2021/03/26 05:29:45;;;;;;;;;;;7.80;99.90;;;;;;5011500;28;19978;-60
2021/03/26 05:32:17;;;;;;;;;;;9.10;99.90;;;;;;5011940;28;19925;-61
2021/03/26 05:34:49;;;;;;;;;;;6.50;99.90;;;;;;5012079;28;19996;-61
2021/03/26 05:37:26;;;;;;;;;;;6.50;99.90;;;;;;5012594;28;19947;-60
2021/03/26 05:39:58;;;;;;;;;;;6.50;99.90;;;;;;5012669;28;20077;-61
2021/03/26 05:42:42;;;;;;;;;;;6.60;99.90;;;;;;5012887;28;19957;-59
2021/03/26 05:45:25;;;;;;;;;;;6.60;99.90;;;;;;5012483;28;19995;-61
2021/03/26 05:48:20;;;;;;;;;;;6.70;99.90;;;;;;5012463;28;19921;-61
2021/03/26 05:50:47;;;;;;;;;;;6.60;99.90;;;;;;5011940;28;20019;-60
2021/03/26 05:53:18;;;;;;;;;;;6.70;99.90;;;;;;5012396;28;20012;-60
2021/03/26 05:55:49;;;;;;;;;;;6.70;99.90;;;;;;5012537;28;19927;-60
2021/03/26 05:58:38;;;;;;;;;;;6.70;99.90;;;;;;5012456;28;19963;-60
2021/03/26 06:01:22;;;;;;;;;;;6.70;99.90;;;;;;5011706;28;20008;-60
2021/03/26 06:03:57;;;;;;;;;;;6.70;99.90;;;;;;5012266;28;19991;-60
2021/03/26 06:06:25;;;;;;;;;;;6.70;99.90;;;;;;5012222;28;19964;-60
2021/03/26 06:09:09;;;;;;;;;;;6.70;99.90;;;;;;5011220;28;20513;-60
2021/03/26 06:11:43;;;;;;;;;;;6.70;99.90;;;;;;5011605;28;20055;-63
2021/03/26 06:14:16;;;;;;;;;;;6.70;99.90;;;;;;5012003;28;20483;-59
2021/03/26 06:17:01;;;;;;;;;;;6.70;99.90;;;;;;5012330;28;20075;-63
2021/03/26 06:19:39;;;;;;;;;;;6.80;99.90;;;;;;5012108;28;19961;-59
2021/03/26 06:22:23;;;;;;;;;;;6.80;99.90;;;;;;5011328;28;19925;-59
2021/03/26 06:25:08;;;;;;;;;;;6.80;99.90;;;;;;5010674;28;20016;-59
2021/03/26 06:27:39;;;;;;;;;;;6.80;99.90;;;;;;5010246;28;20564;-59
2021/03/26 06:30:19;;;;;;;;;;;8.20;99.90;;;;;;5010041;28;19951;-61
2021/03/26 06:32:45;;;;;;;;;;;7.00;99.90;;;;;;5010197;28;19925;-60
2021/03/26 06:35:13;;;;;;;;;;;7.00;99.90;;;;;;5010347;28;19928;-61
2021/03/26 06:37:57;;;;;;;;;;;7.00;99.90;;;;;;5010776;28;19925;-60
2021/03/26 06:40:42;;;;;;;;;;;7.00;99.90;;;;;;5011292;28;20067;-60
2021/03/26 06:43:17;;;;;;;;;;;9.20;99.90;;;;;;5011410;28;19940;-61
2021/03/26 06:45:58;;;;;;;;;;;7.00;99.90;;;;;;5011816;28;19931;-62
2021/03/26 06:48:38;;;;;;;;;;;7.00;99.90;;;;;;5012330;28;19921;-61
2021/03/26 06:51:10;;;;;;;;;;;7.10;99.90;;;;;;5012201;28;19921;-60
2021/03/26 06:53:38;;;;;;;;;;;7.10;99.90;;;;;;5012759;28;19922;-61
2021/03/26 06:56:09;;;;;;;;;;;7.10;99.90;;;;;;5012915;28;19931;-60
2021/03/26 06:58:34;;;;;;;;;;;7.20;99.90;;;;;;5011500;28;20383;-62
2021/03/26 07:01:13;;;;;;;;;;;7.20;99.90;;;;;;5011100;28;19926;-59
2021/03/26 07:03:54;;;;;;;;;;;7.20;99.90;;;;;;5011234;28;19932;-61
2021/03/26 07:06:40;;;;;;;;;;;7.30;99.90;;;;;;5010993;28;19922;-61
2021/03/26 07:09:05;;;;;;;;;;;7.30;99.90;;;;;;5010384;28;20299;-60
2021/03/26 07:11:50;;;;;;;;;;;7.40;99.90;;;;;;5011078;28;19921;-62
2021/03/26 07:14:21;;;;;;;;;;;7.40;99.90;;;;;;5009990;28;19953;-60
2021/03/26 07:16:55;;;;;;;;;;;7.60;99.90;;;;;;5009321;28;20147;-62
2021/03/26 07:19:39;;;;;;;;;;;7.50;99.90;;;;;;5009575;28;19921;-59
2021/03/26 07:22:12;;;;;;;;;;;7.60;99.90;;;;;;5008958;28;19950;-60
2021/03/26 07:24:44;;;;;;;;;;;5.90;99.90;;;;;;5009506;28;19947;-62
2021/03/26 07:27:09;;;;;;;;;;;7.70;99.90;;;;;;5009506;28;19943;-60
2021/03/26 07:29:35;;;;;;;;;;;7.80;99.90;;;;;;5008941;28;20435;-59
2021/03/26 07:32:17;;;;;;;;;;;7.90;99.90;;;;;;5009258;28;19940;-59
2021/03/26 07:34:53;;;;;;;;;;;8.00;99.90;;;;;;5009324;28;19940;-60
2021/03/26 07:37:34;;;;;;;;;;;8.10;99.90;;;;;;5007902;28;19928;-59
2021/03/26 07:40:29;;;;;;;;;;;8.20;99.90;;;;;;5009780;28;19951;-62
2021/03/26 07:43:05;;;;;;;;;;;8.40;99.90;;;;;;5003368;28;19976;-58
2021/03/26 07:45:34;;;;;;;;;;;8.30;99.90;;;;;;4991342;28;20390;-57
2021/03/26 07:48:20;;;;;;;;;;;8.40;99.90;;;;;;4991565;28;19922;-59
2021/03/26 07:50:50;;;;;;;;;;;8.50;99.90;;;;;;4997254;28;19921;-58
2021/03/26 07:53:22;;;;;;;;;;;8.50;99.90;;;;;;4992239;28;19921;-59
2021/03/26 07:55:53;;;;;;;;;;;8.60;99.90;;;;;;4993783;28;19921;-57
2021/03/26 07:58:32;;;;;;;;;;;8.60;99.90;;;;;;4994061;28;19922;-58
2021/03/26 08:00:58;;;;;;;;;;;8.60;99.90;;;;;;4992685;28;19922;-60
2021/03/26 08:03:40;;;;;;;;;;;8.70;99.90;;;;;;4993321;28;20017;-59
2021/03/26 08:06:06;;;;;;;;;;;8.70;99.90;;;;;;4992248;28;20352;-58
2021/03/26 08:08:46;;;;;;;;;;;9.40;99.90;;;;;;4992086;28;19929;-58
2021/03/26 08:11:12;;;;;;;;;;;8.80;99.90;;;;;;4992422;28;20379;-58
2021/03/26 08:13:53;;;;;;;;;;;9.00;99.90;;;;;;4991537;28;19937;-58
2021/03/26 08:16:25;;;;;;;;;;;8.90;99.90;;;;;;4991528;28;19933;-62
2021/03/26 08:19:04;;;;;;;;;;;9.10;99.90;;;;;;4992091;28;19921;-58
2021/03/26 08:21:35;;;;;;;;;;;9.20;99.90;;;;;;4991892;28;19922;-57
2021/03/26 08:24:09;;;;;;;;;;;10.70;99.90;;;;;;4992124;28;19957;-59
2021/03/26 08:26:35;;;;;;;;;;;9.30;99.90;;;;;;4992450;28;19922;-58
2021/03/26 08:29:17;;;;;;;;;;;9.40;99.90;;;;;;4991899;28;20269;-59
2021/03/26 08:32:01;;;;;;;;;;;9.50;99.90;;;;;;4991833;28;19922;-58
2021/03/26 08:34:52;;;;;;;;;;;9.60;99.90;;;;;;4995372;28;19998;-58
2021/03/26 08:37:37;;;;;;;;;;;9.70;99.90;;;;;;4993893;28;20238;-57
2021/03/26 08:40:04;;;;;;;;;;;9.80;99.90;;;;;;4994119;28;19981;-57
2021/03/26 08:42:41;;;;;;;;;;;9.90;99.90;;;;;;4994583;28;20059;-58
2021/03/26 08:45:07;;;;;;;;;;;9.90;99.90;;;;;;4998250;28;19999;-58
2021/03/26 08:47:38;;;;;;;;;;;8.20;99.90;;;;;;5013454;28;20004;-59
2021/03/26 08:50:33;;;;;;;;;;;10.10;99.90;;;;;;5013419;28;20321;-59
2021/03/26 08:53:19;;;;;;;;;;;10.10;99.90;;;;;;5011153;28;19960;-59
2021/03/26 08:55:51;;;;;;;;;;;10.40;99.90;;;;;;5012244;28;19960;-60
2021/03/26 08:58:35;;;;;;;;;;;11.90;99.90;;;;;;5013268;28;19921;-60
2021/03/26 09:01:02;;;;;;;;;;;10.40;99.70;;;;;;5013900;28;19922;-58
2021/03/26 09:03:41;;;;;;;;;;;11.00;99.90;;;;;;5013337;28;19948;-59
2021/03/26 09:06:13;;;;;;;;;;;10.50;99.60;;;;;;5013005;28;20352;-59
2021/03/26 09:08:50;;;;;;;;;;;10.50;99.10;;;;;;5013660;28;20021;-58
2021/03/26 09:11:34;;;;;;;;;;;10.60;99.20;;;;;;5013623;28;20269;-58
2021/03/26 09:14:17;;;;;;;;;;;10.60;99.20;;;;;;5013556;28;19921;-58
2021/03/26 09:16:52;;;;;;;;;;;10.60;98.50;;;;;;5012986;28;20023;-58
2021/03/26 09:19:36;;;;;;;;;;;10.80;98.60;;;;;;5013253;28;19957;-60
2021/03/26 09:22:20;;;;;;;;;;;10.90;98.60;;;;;;5013104;28;19940;-59
2021/03/26 09:24:49;;;;;;;;;;;10.90;98.60;;;;;;5011892;28;19962;-60
2021/03/26 09:27:24;;;;;;;;;;;10.90;98.30;;;;;;5012884;28;19932;-60
2021/03/26 09:30:07;;;;;;;;;;;11.00;98.20;;;;;;5012970;28;19933;-59
2021/03/26 09:32:34;;;;;;;;;;;11.10;98.10;;;;;;5012886;28;19933;-60
2021/03/26 09:35:04;;;;;;;;;;;13.10;98.40;;;;;;5011921;28;19925;-60
2021/03/26 09:37:42;;;;;;;;;;;11.40;98.20;;;;;;5012468;28;20848;-65
2021/03/26 09:40:21;;;;;;;;;;;11.20;98.20;;;;;;5012934;28;19921;-60
2021/03/26 09:43:06;;;;;;;;;;;11.20;97.90;;;;;;5010082;28;19929;-61
2021/03/26 09:45:34;;;;;;;;;;;11.20;97.60;;;;;;5010214;28;19964;-61
2021/03/26 09:48:14;;;;;;;;;;;11.20;96.90;;;;;;5009438;28;19929;-60
2021/03/26 09:50:56;;;;;;;;;;;11.30;97.20;;;;;;5009055;28;20337;-62
2021/03/26 09:53:22;;;;;;;;;;;11.30;97.00;;;;;;5008979;28;19921;-60
2021/03/26 09:55:47;;;;;;;;;;;11.40;97.30;;;;;;5008908;28;19921;-62
2021/03/26 09:58:32;;;;;;;;;;;11.50;97.20;;;;;;5009770;28;19922;-60
2021/03/26 10:01:23;;;;;;;;;;;11.50;97.30;;;;;;5009850;28;19921;-61
2021/03/26 10:03:53;;;;;;;;;;;11.70;96.00;;;;;;5009160;28;19921;-60
2021/03/26 10:06:28;;;;;;;;;;;11.70;95.80;;;;;;5010443;28;19922;-60
2021/03/26 10:09:21;;;;;;;;;;;11.70;95.90;;;;;;5010782;28;20335;-65
2021/03/26 10:11:53;;;;;;;;;;;11.90;95.20;;;;;;5011264;28;19930;-70
2021/03/26 10:14:23;;;;;;;;;;;12.00;94.80;;;;;;5011826;28;19975;-69
2021/03/26 10:16:51;;;;;;;;;;;12.30;93.60;;;;;;5011317;28;19944;-69
2021/03/26 10:19:29;;;;;;;;;;;12.20;94.40;;;;;;5011143;28;19927;-69
2021/03/26 10:21:56;;;;;;;;;;;12.30;94.60;;;;;;5010188;28;20383;-61
2021/03/26 10:24:31;;;;;;;;;;;13.40;94.10;;;;;;5009999;28;20248;-60
2021/03/26 10:27:05;;;;;;;;;;;12.60;93.90;;;;;;5010261;28;19922;-61
2021/03/26 10:29:49;;;;;;;;;;;12.50;92.00;;;;;;5010284;28;19921;-61
2021/03/26 10:32:16;;;;;;;;;;;12.70;91.90;;;;;;5010251;28;19932;-61
2021/03/26 10:34:43;;;;;;;;;;;12.80;91.20;;;;;;5010837;28;19921;-61
2021/03/26 10:37:31;;;;;;;;;;;12.90;90.30;;;;;;5010506;28;20006;-61
2021/03/26 10:40:00;;;;;;;;;;;13.00;90.80;;;;;;5010710;28;20307;-61
2021/03/26 10:42:34;;;;;;;;;;;13.10;88.60;;;;;;5010423;28;19921;-62
2021/03/26 10:45:06;;;;;;;;;;;13.20;90.40;;;;;;5010127;28;20254;-62
2021/03/26 10:47:43;;;;;;;;;;;13.30;89.30;;;;;;5009990;28;19925;-62
2021/03/26 10:50:12;;;;;;;;;;;13.50;87.00;;;;;;5009612;28;19953;-61
2021/03/26 10:52:45;;;;;;;;;;;13.60;83.50;;;;;;5009749;28;20245;-61
2021/03/26 10:55:13;;;;;;;;;;;13.50;81.00;;;;;;5008932;28;19929;-61
2021/03/26 10:57:39;;;;;;;;;;;13.40;82.90;;;;;;5009282;28;19921;-61
2021/03/26 11:00:07;;;;;;;;;;;15.60;82.10;;;;;;5009483;28;19921;-61
2021/03/26 11:02:42;;;;;;;;;;;13.50;82.30;;;;;;5009237;28;20703;-60
2021/03/26 11:05:11;;;;;;;;;;;13.60;80.10;;;;;;5009462;28;19921;-60
2021/03/26 11:07:40;;;;;;;;;;;13.60;79.40;;;;;;5009464;28;19931;-60
2021/03/26 11:10:07;;;;;;;;;;;13.50;80.10;;;;;;5009078;28;19936;-63
2021/03/26 11:12:32;;;;;;;;;;;13.50;79.90;;;;;;5009261;28;19933;-61
2021/03/26 11:14:58;;;;;;;;;;;13.80;79.10;;;;;;5009091;28;19997;-62
2021/03/26 11:17:30;;;;;;;;;;;14.00;77.40;;;;;;5009333;28;19933;-60
2021/03/26 11:20:08;;;;;;;;;;;14.00;78.80;;;;;;5009031;28;19959;-63
2021/03/26 11:22:35;;;;;;;;;;;16.00;76.40;;;;;;5014013;28;19952;-60
2021/03/26 11:25:03;;;;;;;;;;;15.80;75.30;;;;;;5028776;28;19921;-61
2021/03/26 11:27:32;;;;;;;;;;;14.30;71.10;;;;;;5030676;28;19968;-61
2021/03/26 11:30:36;;;;;;;;;;;14.30;72.60;;;;;;5030763;28;19972;-61
2021/03/26 11:33:10;;;;;;;;;;;14.30;70.90;;;;;;5026139;28;20412;-62
2021/03/26 11:35:37;;;;;;;;;;;14.40;71.10;;;;;;5020580;28;19921;-61
2021/03/26 11:38:16;;;;;;;;;;;14.40;70.70;;;;;;5020731;28;19921;-62
2021/03/26 11:40:44;;;;;;;;;;;14.20;70.10;;;;;;5024697;28;19939;-61
2021/03/26 11:43:14;;;;;;;;;;;14.40;70.30;;;;;;5029234;28;19921;-61
2021/03/26 11:45:41;;;;;;;;;;;14.50;70.00;;;;;;5023825;28;19921;-61
2021/03/26 11:48:07;;;;;;;;;;;14.50;69.60;;;;;;5023628;28;19921;-61
2021/03/26 11:51:02;;;;;;;;;;;14.70;69.40;;;;;;5022007;28;19921;-61
2021/03/26 11:53:42;;;;;;;;;;;14.70;71.10;;;;;;5032637;28;19933;-62
2021/03/26 11:56:08;;;;;;;;;;;14.60;69.40;;;;;;5024022;28;19921;-62
2021/03/26 11:58:52;;;;;;;;;;;14.70;70.80;;;;;;5023230;28;20325;-62
2021/03/26 12:01:20;;;;;;;;;;;14.80;72.90;;;;;;5014425;28;20001;-67
2021/03/26 12:03:59;;;;;;;;;;;14.90;71.20;;;;;;5026538;28;19922;-61
2021/03/26 12:06:32;;;;;;;;;;;14.80;70.40;;;;;;5034605;28;19909;-60
2021/03/26 12:09:00;;;;;;;;;;;14.90;69.10;;;;;;5035759;28;19910;-63
2021/03/26 12:11:30;;;;;;;;;;;14.90;70.10;;;;;;5036173;28;19920;-66
2021/03/26 12:14:18;;;;;;;;;;;14.80;68.90;;;;;;5034733;28;19931;-65
2021/03/26 12:16:59;;;;;;;;;;;14.70;69.00;;;;;;5016581;28;19976;-66
2021/03/26 12:19:25;;;;;;;;;;;14.60;68.90;;;;;;5016360;28;20009;-60
2021/03/26 12:21:51;;;;;;;;;;;14.50;70.20;;;;;;5014297;28;20036;-58
2021/03/26 12:24:20;;;;;;;;;;;14.40;68.70;;;;;;5013965;28;19960;-60
2021/03/26 12:27:07;;;;;;;;;;;14.50;69.90;;;;;;5014165;28;19968;-58
2021/03/26 12:29:41;;;;;;;;;;;14.50;68.50;;;;;;5014163;28;20390;-61
2021/03/26 12:32:29;;;;;;;;;;;14.40;69.30;;;;;;5016446;28;19929;-60
2021/03/26 12:35:12;;;;;;;;;;;14.50;68.40;;;;;;4997108;28;19922;-59
2021/03/26 12:37:50;;;;;;;;;;;14.70;69.50;;;;;;4994142;28;20332;-60
2021/03/26 12:40:34;;;;;;;;;;;14.60;66.40;;;;;;4994643;28;19929;-61
2021/03/26 12:43:19;;;;;;;;;;;14.60;65.90;;;;;;4993534;28;19925;-61
2021/03/26 12:45:52;;;;;;;;;;;14.60;67.10;;;;;;4993317;28;19921;-61
2021/03/26 12:48:19;;;;;;;;;;;15.40;66.30;;;;;;4993440;28;19922;-60
2021/03/26 12:50:48;;;;;;;;;;;14.80;65.30;;;;;;4995676;28;20301;-61
2021/03/26 12:53:32;;;;;;;;;;;14.50;65.20;;;;;;4998998;28;20013;-61
2021/03/26 12:56:12;;;;;;;;;;;14.60;66.40;;;;;;4998485;28;19980;-61
2021/03/26 12:58:50;;;;;;;;;;;14.70;68.60;;;;;;4997148;28;20012;-62
2021/03/26 13:01:42;;;;;;;;;;;14.80;66.50;;;;;;5004488;28;19947;-60
2021/03/26 13:04:14;;;;;;;;;;;14.70;66.10;;;;;;5018761;28;20000;-63
2021/03/26 13:06:42;;;;;;;;;;;14.70;65.30;;;;;;5016648;28;19963;-61
2021/03/26 13:09:26;;;;;;;;;;;14.60;65.50;;;;;;5015445;28;19921;-61
2021/03/26 13:11:57;;;;;;;;;;;14.70;67.60;;;;;;5018063;28;19971;-61
2021/03/26 13:14:34;;;;;;;;;;;14.70;65.80;;;;;;5015123;28;19922;-70
2021/03/26 13:17:00;;;;;;;;;;;14.70;64.10;;;;;;5013321;28;19925;-61
2021/03/26 13:19:28;;;;;;;;;;;14.70;64.60;;;;;;5012249;28;20246;-62
2021/03/26 13:22:01;;;;;;;;;;;14.80;65.40;;;;;;5012739;28;20748;-62
2021/03/26 13:24:32;;;;;;;;;;;14.80;66.10;;;;;;5013065;28;19943;-61
2021/03/26 13:27:17;;;;;;;;;;;14.90;65.70;;;;;;5012611;28;20028;-61
2021/03/26 13:29:45;;;;;;;;;;;15.00;66.60;;;;;;5013243;28;20363;-62
2021/03/26 13:32:11;;;;;;;;;;;15.00;66.40;;;;;;5012514;28;19936;-61
2021/03/26 13:34:38;;;;;;;;;;;15.00;65.00;;;;;;5011664;28;20279;-61
2021/03/26 13:37:18;;;;;;;;;;;15.10;63.50;;;;;;5011746;28;19967;-61
2021/03/26 13:39:49;;;;;;;;;;;14.80;62.00;;;;;;5011768;28;20023;-62
2021/03/26 13:42:17;;;;;;;;;;;14.80;62.10;;;;;;5011954;28;20320;-62
2021/03/26 13:44:58;;;;;;;;;;;14.80;61.20;;;;;;5011675;28;20455;-60
2021/03/26 13:47:23;;;;;;;;;;;14.90;62.00;;;;;;5015284;28;19921;-62
2021/03/26 13:49:53;;;;;;;;;;;14.80;62.50;;;;;;5012541;28;20349;-62
2021/03/26 13:52:25;;;;;;;;;;;16.90;64.60;;;;;;5012138;28;19944;-62
2021/03/26 13:54:58;;;;;;;;;;;14.90;62.10;;;;;;5011028;28;19956;-61
2021/03/26 13:57:27;;;;;;;;;;;15.80;61.40;;;;;;5011089;28;20296;-61
2021/03/26 14:00:02;;;;;;;;;;;16.50;63.00;;;;;;5010834;28;19929;-62
2021/03/26 14:02:32;;;;;;;;;;;15.00;61.70;;;;;;5010925;28;19921;-61
2021/03/26 14:04:57;;;;;;;;;;;14.80;61.20;;;;;;5010585;28;19922;-61
2021/03/26 14:07:27;;;;;;;;;;;15.00;61.50;;;;;;5011101;28;19952;-59
2021/03/26 14:09:53;;;;;;;;;;;15.00;62.90;;;;;;5011939;28;19921;-61
2021/03/26 14:12:20;;;;;;;;;;;15.30;61.10;;;;;;5012216;28;19975;-60
2021/03/26 14:14:50;;;;;;;;;;;14.90;59.90;;;;;;5012362;28;20292;-60
2021/03/26 14:17:29;;;;;;;;;;;14.90;60.20;;;;;;5011559;28;19921;-60
2021/03/26 14:19:59;;;;;;;;;;;14.80;60.90;;;;;;5010729;28;19944;-61
2021/03/26 14:22:28;;;;;;;;;;;14.80;61.80;;;;;;5010393;28;19922;-61
2021/03/26 14:25:01;;;;;;;;;;;14.80;62.20;;;;;;5010545;28;19966;-62
2021/03/26 14:27:27;;;;;;;;;;;14.70;60.50;;;;;;5012560;28;20317;-57
2021/03/26 14:29:52;;;;;;;;;;;14.70;60.50;;;;;;5020594;28;19921;-58
2021/03/26 14:32:20;;;;;;;;;;;14.90;60.60;;;;;;5024055;28;19921;-59
2021/03/26 14:34:55;;;;;;;;;;;14.90;61.10;;;;;;5018947;28;19933;-59
2021/03/26 14:37:26;;;;;;;;;;;14.80;60.90;;;;;;5022094;28;19939;-57
2021/03/26 14:39:52;;;;;;;;;;;14.70;59.70;;;;;;5019793;28;19967;-57
2021/03/26 14:42:20;;;;;;;;;;;14.70;59.70;;;;;;5023173;28;19922;-59
2021/03/26 14:45:00;;;;;;;;;;;15.10;60.90;;;;;;5021022;28;20285;-58
2021/03/26 14:47:29;;;;;;;;;;;14.90;60.00;;;;;;5032306;28;19956;-61
2021/03/26 14:50:10;;;;;;;;;;;15.00;59.00;;;;;;5030868;28;19936;-61
2021/03/26 14:52:39;;;;;;;;;;;14.80;58.80;;;;;;5032175;28;19921;-61
2021/03/26 14:55:10;;;;;;;;;;;14.70;59.90;;;;;;5031990;28;20409;-59
2021/03/26 14:57:54;;;;;;;;;;;14.60;59.80;;;;;;5031065;28;19928;-60
2021/03/26 15:00:39;;;;;;;;;;;14.50;59.40;;;;;;5032807;28;20271;-62